Sparto — P3VW9 — position and weather

sailwx.info

Track history (hours):
 
Tides and Currents Weather Stations Pressure Air Temp Water Temp Dewpoint Dewpoint Depression Visibility Wind Speed Wind Dir Waves Ship Positions

Sparto

Last reported at 2018-Feb-24 10:00 UTC. Time now 2018-Feb-24 10:29 UTC.
Position N 60°08' E 028°10'.

Length 249 m; draft 8.5 m.

Type: Ship. MMSI: 209055000.

Date/timePositionNaut miles runAvg speedWind from/ knotsBaromVisibWave heightAir tempDewpointWater temp
2018-Feb-24 10:00N 60°08' E 028°10'0 0.0
2018-Feb-24 09:30N 60°08' E 028°10'0 0.0
2018-Feb-24 09:00N 60°08' E 028°10'0 0.0
2018-Feb-24 08:30N 60°08' E 028°10'0 0.0
2018-Feb-24 08:00N 60°08' E 028°10'0 0.0
2018-Feb-24 07:31N 60°08' E 028°10'0 0.0
2018-Feb-24 07:01N 60°08' E 028°10'1 3.0
2018-Feb-24 06:31N 60°08' E 028°07'2 4.1
2018-Feb-24 06:01N 60°08' E 028°03'2 4.1
2018-Feb-24 05:31N 60°09' E 027°59'510.5
2018-Feb-24 05:00N 60°10' E 027°49'510.2
2018-Feb-24 04:30N 60°09' E 027°39'510.4
2018-Feb-24 04:01N 60°06' E 027°31'5 9.4
2018-Feb-24 03:30N 60°04' E 027°22'4 7.3
2018-Feb-24 03:00N 60°02' E 027°16'5 9.3
2018-Feb-24 02:30N 59°59' E 027°08'4 8.7
2018-Feb-24 02:00N 59°58' E 026°60'510.3
2018-Feb-24 01:30N 59°59' E 026°50'510.9
2018-Feb-24 01:01N 59°60' E 026°39'510.9
2018-Feb-24 00:30N 59°58' E 026°28'510.1
2018-Feb-24 00:00N 59°57' E 026°19'1410.4
2018-Feb-23 22:40N 59°52' E 025°52'210.0
2018-Feb-23 22:29N 59°52' E 025°49'510.1
2018-Feb-23 22:00N 59°51' E 025°39'510.1
2018-Feb-23 21:31N 59°50' E 025°30'510.7
2018-Feb-23 21:01N 59°49' E 025°19'510.8
2018-Feb-23 20:30N 59°48' E 025°09'510.8
2018-Feb-23 20:01N 59°47' E 024°58'510.6
2018-Feb-23 19:31N 59°45' E 024°48'611.2
2018-Feb-23 19:01N 59°44' E 024°37'611.2
2018-Feb-23 18:31N 59°43' E 024°26'611.2
2018-Feb-23 18:00N 59°41' E 024°16'510.7
2018-Feb-23 17:31N 59°40' E 024°06'611.0
2018-Feb-23 17:01N 59°38' E 023°55'611.5
2018-Feb-23 16:31N 59°36' E 023°44'612.1
2018-Feb-23 16:01N 59°34' E 023°33'612.1
2018-Feb-23 15:30N 59°33' E 023°22'612.1
2018-Feb-23 15:01N 59°31' E 023°10'611.7
2018-Feb-23 14:31N 59°29' E 022°59'611.5
2018-Feb-23 13:57N 59°27' E 022°47'29311.1
2018-Feb-22 11:37N 55°48' E 016°45'111.6
2018-Feb-22 11:31N 55°47' E 016°42'611.7
2018-Feb-22 11:00N 55°46' E 016°32'611.8
2018-Feb-22 10:30N 55°45' E 016°22'611.9
2018-Feb-22 10:00N 55°43' E 016°12'612.0
2018-Feb-22 09:31N 55°42' E 016°02'611.9
2018-Feb-22 09:01N 55°40' E 015°51'612.0
2018-Feb-22 08:31N 55°39' E 015°41'611.8
2018-Feb-22 08:01N 55°37' E 015°31'611.7
2018-Feb-22 07:30N 55°35' E 015°21'611.6
2018-Feb-22 07:00N 55°33' E 015°12'611.2
2018-Feb-22 06:31N 55°30' E 015°03'611.2
2018-Feb-22 06:00N 55°28' E 014°54'611.2
2018-Feb-22 05:30N 55°25' E 014°45'510.9
2018-Feb-22 05:00N 55°23' E 014°37'611.1
2018-Feb-22 04:30N 55°18' E 014°31'511.1
2018-Feb-22 04:01N 55°14' E 014°25'510.9
2018-Feb-22 03:30N 55°10' E 014°19'510.9
2018-Feb-22 03:01N 55°05' E 014°13'611.0
2018-Feb-22 02:30N 55°01' E 014°08'5411.6
2018-Feb-21 21:50N 54°43' E 012°39'411.9
2018-Feb-21 21:30N 54°41' E 012°33'611.9
2018-Feb-21 21:00N 54°38' E 012°25'7 9.8
2018-Feb-21 20:17N 54°33' E 012°16'2 8.6
2018-Feb-21 20:00N 54°31' E 012°14'510.9
2018-Feb-21 19:30N 54°26' E 012°10'813.6
2018-Feb-21 18:54N 54°24' E 011°57'613.8
2018-Feb-21 18:27N 54°24' E 011°46'613.9
2018-Feb-21 18:00N 54°27' E 011°37'713.8
2018-Feb-21 17:30N 54°30' E 011°26'613.2
2018-Feb-21 17:00N 54°33' E 011°15'612.8
2018-Feb-21 16:30N 54°36' E 011°06'713.1
2018-Feb-21 16:00N 54°40' E 010°57'611.7
2018-Feb-21 15:30N 54°45' E 010°51'612.8
2018-Feb-21 15:00N 54°51' E 010°52'612.1
2018-Feb-21 14:30N 54°57' E 010°56'612.6
2018-Feb-21 14:00N 55°02' E 011°02'612.6
2018-Feb-21 13:30N 55°08' E 011°03'612.1
2018-Feb-21 13:00N 55°14' E 011°05'713.0
2018-Feb-21 12:30N 55°21' E 011°02'10010.4
2018-Feb-21 02:52N 56°57' E 011°44'412.0
2018-Feb-21 02:30N 57°02' E 011°41'611.8
2018-Feb-21 02:00N 57°07' E 011°37'611.7
2018-Feb-21 01:30N 57°13' E 011°34'612.0
2018-Feb-21 01:00N 57°18' E 011°30'612.0
2018-Feb-21 00:30N 57°24' E 011°27'611.4
2018-Feb-21 00:00N 57°29' E 011°21'611.5
2018-Feb-20 23:30N 57°33' E 011°14'611.4
2018-Feb-20 23:00N 57°37' E 011°06'611.8
2018-Feb-20 22:30N 57°41' E 010°58'611.9
2018-Feb-20 22:00N 57°44' E 010°49'5 9.8
2018-Feb-20 21:30N 57°47' E 010°41'611.2
2018-Feb-20 21:00N 57°47' E 010°31'611.3
2018-Feb-20 20:30N 57°47' E 010°20'29711.5
2018-Feb-19 18:37N 54°00' E 004°39'112.4
2018-Feb-19 18:30N 53°59' E 004°38'611.6
2018-Feb-19 17:59N 53°54' E 004°33'611.2
2018-Feb-19 17:29N 53°49' E 004°27'610.8
2018-Feb-19 16:59N 53°46' E 004°20'510.8
2018-Feb-19 16:29N 53°42' E 004°13'95 9.3
2018-Feb-19 06:20N 52°13' E 003°22'411.3
2018-Feb-19 05:57N 52°10' E 003°28'511.0
2018-Feb-19 05:30N 52°08' E 003°35'510.6
2018-Feb-19 05:00N 52°05' E 003°42'510.5
2018-Feb-19 04:30N 52°04' E 003°51'4 8.2
2018-Feb-19 04:00N 52°02' E 003°56'612.7
2018-Feb-19 03:30N 51°59' E 004°05'4 7.8
2018-Feb-19 03:00N 51°57' E 004°10'2 4.1
2018-Feb-19 02:30N 51°55' E 004°12'0 0.0
2018-Feb-19 02:00N 51°55' E 004°12'0 0.0
2018-Feb-19 01:28N 51°55' E 004°12'0 0.0
2018-Feb-19 00:58N 51°55' E 004°12'0 0.0
2018-Feb-19 00:28N 51°55' E 004°12'0 0.0
2018-Feb-18 23:58N 51°55' E 004°12'0 0.0
2018-Feb-18 23:28N 51°55' E 004°12'0 0.0
2018-Feb-18 22:58N 51°55' E 004°12'0 0.0
2018-Feb-18 22:28N 51°55' E 004°12'0 0.0
2018-Feb-18 21:58N 51°55' E 004°12'0 0.0
2018-Feb-18 21:28N 51°55' E 004°12'0 0.0
2018-Feb-18 20:58N 51°55' E 004°12'0 0.0
2018-Feb-18 20:28N 51°55' E 004°12'0 0.0
2018-Feb-18 19:58N 51°55' E 004°12'0 0.0
2018-Feb-18 19:28N 51°55' E 004°12'0 0.0
2018-Feb-18 18:58N 51°55' E 004°12'0 0.0
2018-Feb-18 18:28N 51°55' E 004°12'0 0.0
2018-Feb-18 17:58N 51°55' E 004°12'0 0.0
2018-Feb-18 17:28N 51°55' E 004°12'0 0.0
2018-Feb-18 16:58N 51°55' E 004°12'0 0.0
2018-Feb-18 16:28N 51°55' E 004°12'0 0.0
2018-Feb-18 15:58N 51°55' E 004°12'0 0.0
2018-Feb-18 15:28N 51°55' E 004°12'0 0.0
2018-Feb-18 14:58N 51°55' E 004°12'0 0.0
2018-Feb-18 14:28N 51°55' E 004°12'0 0.0
2018-Feb-18 13:58N 51°55' E 004°12'0 0.0
2018-Feb-18 13:28N 51°55' E 004°12'0 0.0
2018-Feb-18 12:58N 51°55' E 004°12'0 0.0
2018-Feb-18 12:28N 51°55' E 004°12'0 0.0
2018-Feb-18 11:58N 51°55' E 004°12'0 0.0
2018-Feb-18 11:28N 51°55' E 004°12'0 0.0
2018-Feb-18 10:58N 51°55' E 004°12'0 0.0
2018-Feb-18 10:28N 51°55' E 004°12'0 0.0
2018-Feb-18 09:58N 51°55' E 004°12'0 0.0
2018-Feb-18 09:28N 51°55' E 004°12'0 0.0
2018-Feb-18 08:58N 51°55' E 004°12'0 0.0
2018-Feb-18 08:28N 51°55' E 004°12'0 0.0
2018-Feb-18 07:58N 51°55' E 004°12'0 0.0
2018-Feb-18 07:28N 51°55' E 004°12'0 0.0
2018-Feb-18 06:58N 51°55' E 004°12'0 0.0
2018-Feb-18 06:28N 51°55' E 004°12'0 0.0
2018-Feb-18 05:58N 51°55' E 004°12'0 0.0
2018-Feb-18 05:28N 51°55' E 004°12'0 0.0
2018-Feb-18 04:58N 51°55' E 004°12'0 0.0
2018-Feb-18 04:28N 51°55' E 004°12'0 0.0
2018-Feb-18 03:58N 51°55' E 004°12'0 0.0
2018-Feb-18 03:28N 51°55' E 004°12'0 0.0
2018-Feb-18 02:58N 51°55' E 004°12'0 0.0
2018-Feb-18 02:28N 51°55' E 004°12'0 0.0
2018-Feb-18 01:58N 51°55' E 004°12'0 0.0
2018-Feb-18 01:28N 51°55' E 004°12'0 0.0
2018-Feb-18 00:58N 51°55' E 004°12'0 0.0
2018-Feb-18 00:28N 51°55' E 004°12'0 0.0
2018-Feb-17 23:58N 51°55' E 004°12'0 0.0
2018-Feb-17 23:28N 51°55' E 004°12'0 0.0
2018-Feb-17 22:58N 51°55' E 004°12'0 0.0
2018-Feb-17 22:28N 51°55' E 004°12'0 0.0
2018-Feb-17 21:58N 51°55' E 004°12'0 0.0
2018-Feb-17 21:28N 51°55' E 004°12'0 0.0
2018-Feb-17 20:58N 51°55' E 004°12'0 0.0
2018-Feb-17 20:28N 51°55' E 004°12'0 0.0
2018-Feb-17 19:58N 51°55' E 004°12'0 0.0
2018-Feb-17 19:28N 51°55' E 004°12'0 0.0
2018-Feb-17 18:58N 51°55' E 004°12'0 0.0
2018-Feb-17 18:28N 51°55' E 004°12'0 0.0
2018-Feb-17 17:58N 51°55' E 004°12'0 0.0
2018-Feb-17 17:28N 51°55' E 004°12'0 0.0
2018-Feb-17 16:58N 51°55' E 004°12'0 0.0
2018-Feb-17 16:28N 51°55' E 004°12'0 0.0
2018-Feb-17 15:58N 51°55' E 004°12'0 0.0
2018-Feb-17 15:28N 51°55' E 004°12'0 0.0
2018-Feb-17 14:58N 51°55' E 004°12'0 0.0
2018-Feb-17 14:28N 51°55' E 004°12'0 0.0
2018-Feb-17 13:58N 51°55' E 004°12'0 0.0
2018-Feb-17 13:28N 51°55' E 004°12'0 0.0
2018-Feb-17 12:58N 51°55' E 004°12'0 0.0
2018-Feb-17 12:28N 51°55' E 004°12'0 0.0
2018-Feb-17 11:58N 51°55' E 004°12'0 0.0
2018-Feb-17 11:28N 51°55' E 004°12'0 0.0
2018-Feb-17 10:58N 51°55' E 004°12'0 0.0
2018-Feb-17 10:28N 51°55' E 004°12'0 0.0
2018-Feb-17 09:58N 51°55' E 004°12'0 0.0
2018-Feb-17 09:28N 51°55' E 004°12'0 0.0
2018-Feb-17 08:58N 51°55' E 004°12'0 0.0
2018-Feb-17 08:28N 51°55' E 004°12'0 0.0
2018-Feb-17 07:58N 51°55' E 004°12'0 0.0
2018-Feb-17 07:28N 51°55' E 004°12'0 0.0
2018-Feb-17 06:59N 51°55' E 004°12'0 0.0
2018-Feb-17 06:28N 51°55' E 004°12'0 0.0
2018-Feb-17 05:58N 51°55' E 004°12'0 0.0
2018-Feb-17 05:28N 51°55' E 004°12'0 0.0
2018-Feb-17 04:58N 51°55' E 004°12'0 0.0
2018-Feb-17 04:28N 51°55' E 004°12'0 0.0
2018-Feb-17 03:58N 51°55' E 004°12'0 0.0
2018-Feb-17 03:28N 51°55' E 004°12'0 0.0
2018-Feb-17 02:58N 51°55' E 004°12'0 0.0
2018-Feb-17 02:28N 51°55' E 004°12'0 0.0
2018-Feb-17 01:58N 51°55' E 004°12'0 0.0
2018-Feb-17 01:28N 51°55' E 004°12'0 0.0
2018-Feb-17 00:58N 51°55' E 004°12'0 0.0
2018-Feb-17 00:28N 51°55' E 004°12'0 0.0
2018-Feb-16 23:58N 51°55' E 004°12'0 0.0
2018-Feb-16 23:28N 51°55' E 004°12'0 0.0
2018-Feb-16 22:58N 51°55' E 004°12'0 0.0
2018-Feb-16 22:28N 51°55' E 004°12'0 0.0
2018-Feb-16 21:58N 51°55' E 004°12'0 0.0
2018-Feb-16 21:28N 51°55' E 004°12'0 0.0
2018-Feb-16 20:58N 51°55' E 004°12'0 0.0
2018-Feb-16 20:28N 51°55' E 004°12'0 0.0
2018-Feb-16 19:58N 51°55' E 004°12'0 0.0
2018-Feb-16 19:28N 51°55' E 004°12'0 0.0
2018-Feb-16 18:58N 51°55' E 004°12'0 0.0
2018-Feb-16 18:28N 51°55' E 004°12'0 0.0
2018-Feb-16 17:58N 51°55' E 004°12'0 0.0
2018-Feb-16 17:28N 51°55' E 004°12'0 0.0
2018-Feb-16 16:58N 51°55' E 004°12'0 0.0
2018-Feb-16 16:25N 51°55' E 004°12'0 0.0
2018-Feb-16 15:58N 51°55' E 004°12'0 0.0
2018-Feb-16 15:28N 51°55' E 004°12'0 0.0
2018-Feb-16 14:58N 51°55' E 004°12'0 0.0
2018-Feb-16 14:28N 51°55' E 004°12'0 0.0
2018-Feb-16 13:58N 51°55' E 004°12'0 0.0
2018-Feb-16 13:28N 51°55' E 004°12'0 0.0
2018-Feb-16 12:58N 51°55' E 004°12'0 0.0
2018-Feb-16 12:28N 51°55' E 004°12'0 0.0
2018-Feb-16 11:58N 51°55' E 004°12'0 0.0
2018-Feb-16 11:28N 51°55' E 004°12'0 0.0
2018-Feb-16 10:55N 51°55' E 004°12'0 0.0
2018-Feb-16 10:28N 51°55' E 004°12'0 0.0
2018-Feb-16 09:58N 51°55' E 004°12'0 0.0
2018-Feb-16 09:28N 51°55' E 004°12'0 0.0
2018-Feb-16 08:58N 51°55' E 004°12'0 0.0
2018-Feb-16 08:28N 51°55' E 004°12'0 0.0
2018-Feb-16 07:58N 51°55' E 004°12'0 0.0
2018-Feb-16 07:28N 51°55' E 004°12'0 0.0
2018-Feb-16 06:58N 51°55' E 004°12'0 0.0
2018-Feb-16 06:28N 51°55' E 004°12'0 0.0
2018-Feb-16 05:58N 51°55' E 004°12'0 0.0
2018-Feb-16 05:28N 51°55' E 004°12'0 0.1
2018-Feb-16 05:00N 51°55' E 004°12'1 2.4
2018-Feb-16 04:31N 51°56' E 004°11'3 6.3
2018-Feb-16 04:01N 51°58' E 004°07'611.5
2018-Feb-16 03:30N 52°00' E 003°59'5 9.8
2018-Feb-16 03:00N 52°01' E 003°51'510.0
2018-Feb-16 02:31N 52°02' E 003°43'4 8.1
2018-Feb-16 02:00N 52°05' E 003°38'4 8.5
2018-Feb-16 01:30N 52°07' E 003°32'3 6.4
2018-Feb-16 01:00N 52°10' E 003°33'0 0.3
2018-Feb-15 23:56N 52°10' E 003°33'0 0.2
2018-Feb-15 23:30N 52°10' E 003°33'0 0.1
2018-Feb-15 23:00N 52°10' E 003°33'0 0.1
2018-Feb-15 22:30N 52°10' E 003°33'0 0.1
2018-Feb-15 22:00N 52°10' E 003°33'0 0.0
2018-Feb-15 21:30N 52°10' E 003°33'0 0.8
2018-Feb-15 21:00N 52°10' E 003°33'2 4.6
2018-Feb-15 20:30N 52°08' E 003°29'4 7.7
2018-Feb-15 20:00N 52°10' E 003°23'612.4
2018-Feb-15 19:30N 52°14' E 003°15'  
Track history (hours):
 
Tides and Currents Weather Stations Pressure Air Temp Water Temp Dewpoint Dewpoint Depression Visibility Wind Speed Wind Dir Waves Ship Positions

Sparto

Last reported at 2018-Feb-24 10:00 UTC. Time now 2018-Feb-24 10:29 UTC.
Position N 60°08' E 028°10'.

Length 249 m; draft 8.5 m.

Type: Ship. MMSI: 209055000.

Date/timePositionNaut miles runAvg speedWind from/ knotsBaromVisibWave heightAir tempDewpointWater temp
2018-Feb-24 10:00N 60°08' E 028°10'0 0.0
2018-Feb-24 09:30N 60°08' E 028°10'0 0.0
2018-Feb-24 09:00N 60°08' E 028°10'0 0.0
2018-Feb-24 08:30N 60°08' E 028°10'0 0.0
2018-Feb-24 08:00N 60°08' E 028°10'0 0.0
2018-Feb-24 07:31N 60°08' E 028°10'0 0.0
2018-Feb-24 07:01N 60°08' E 028°10'1 3.0
2018-Feb-24 06:31N 60°08' E 028°07'2 4.1
2018-Feb-24 06:01N 60°08' E 028°03'2 4.1
2018-Feb-24 05:31N 60°09' E 027°59'510.5
2018-Feb-24 05:00N 60°10' E 027°49'510.2
2018-Feb-24 04:30N 60°09' E 027°39'510.4
2018-Feb-24 04:01N 60°06' E 027°31'5 9.4
2018-Feb-24 03:30N 60°04' E 027°22'4 7.3
2018-Feb-24 03:00N 60°02' E 027°16'5 9.3
2018-Feb-24 02:30N 59°59' E 027°08'4 8.7
2018-Feb-24 02:00N 59°58' E 026°60'510.3
2018-Feb-24 01:30N 59°59' E 026°50'510.9
2018-Feb-24 01:01N 59°60' E 026°39'510.9
2018-Feb-24 00:30N 59°58' E 026°28'510.1
2018-Feb-24 00:00N 59°57' E 026°19'1410.4
2018-Feb-23 22:40N 59°52' E 025°52'210.0
2018-Feb-23 22:29N 59°52' E 025°49'510.1
2018-Feb-23 22:00N 59°51' E 025°39'510.1
2018-Feb-23 21:31N 59°50' E 025°30'510.7
2018-Feb-23 21:01N 59°49' E 025°19'510.8
2018-Feb-23 20:30N 59°48' E 025°09'510.8
2018-Feb-23 20:01N 59°47' E 024°58'510.6
2018-Feb-23 19:31N 59°45' E 024°48'611.2
2018-Feb-23 19:01N 59°44' E 024°37'611.2
2018-Feb-23 18:31N 59°43' E 024°26'611.2
2018-Feb-23 18:00N 59°41' E 024°16'510.7
2018-Feb-23 17:31N 59°40' E 024°06'611.0
2018-Feb-23 17:01N 59°38' E 023°55'611.5
2018-Feb-23 16:31N 59°36' E 023°44'612.1
2018-Feb-23 16:01N 59°34' E 023°33'612.1
2018-Feb-23 15:30N 59°33' E 023°22'612.1
2018-Feb-23 15:01N 59°31' E 023°10'611.7
2018-Feb-23 14:31N 59°29' E 022°59'611.5
2018-Feb-23 13:57N 59°27' E 022°47'29311.1
2018-Feb-22 11:37N 55°48' E 016°45'111.6
2018-Feb-22 11:31N 55°47' E 016°42'611.7
2018-Feb-22 11:00N 55°46' E 016°32'611.8
2018-Feb-22 10:30N 55°45' E 016°22'611.9
2018-Feb-22 10:00N 55°43' E 016°12'612.0
2018-Feb-22 09:31N 55°42' E 016°02'611.9
2018-Feb-22 09:01N 55°40' E 015°51'612.0
2018-Feb-22 08:31N 55°39' E 015°41'611.8
2018-Feb-22 08:01N 55°37' E 015°31'611.7
2018-Feb-22 07:30N 55°35' E 015°21'611.6
2018-Feb-22 07:00N 55°33' E 015°12'611.2
2018-Feb-22 06:31N 55°30' E 015°03'611.2
2018-Feb-22 06:00N 55°28' E 014°54'611.2
2018-Feb-22 05:30N 55°25' E 014°45'510.9
2018-Feb-22 05:00N 55°23' E 014°37'611.1
2018-Feb-22 04:30N 55°18' E 014°31'511.1
2018-Feb-22 04:01N 55°14' E 014°25'510.9
2018-Feb-22 03:30N 55°10' E 014°19'510.9
2018-Feb-22 03:01N 55°05' E 014°13'611.0
2018-Feb-22 02:30N 55°01' E 014°08'5411.6
2018-Feb-21 21:50N 54°43' E 012°39'411.9
2018-Feb-21 21:30N 54°41' E 012°33'611.9
2018-Feb-21 21:00N 54°38' E 012°25'7 9.8
2018-Feb-21 20:17N 54°33' E 012°16'2 8.6
2018-Feb-21 20:00N 54°31' E 012°14'510.9
2018-Feb-21 19:30N 54°26' E 012°10'813.6
2018-Feb-21 18:54N 54°24' E 011°57'613.8
2018-Feb-21 18:27N 54°24' E 011°46'613.9
2018-Feb-21 18:00N 54°27' E 011°37'713.8
2018-Feb-21 17:30N 54°30' E 011°26'613.2
2018-Feb-21 17:00N 54°33' E 011°15'612.8
2018-Feb-21 16:30N 54°36' E 011°06'713.1
2018-Feb-21 16:00N 54°40' E 010°57'611.7
2018-Feb-21 15:30N 54°45' E 010°51'612.8
2018-Feb-21 15:00N 54°51' E 010°52'612.1
2018-Feb-21 14:30N 54°57' E 010°56'612.6
2018-Feb-21 14:00N 55°02' E 011°02'612.6
2018-Feb-21 13:30N 55°08' E 011°03'612.1
2018-Feb-21 13:00N 55°14' E 011°05'713.0
2018-Feb-21 12:30N 55°21' E 011°02'10010.4
2018-Feb-21 02:52N 56°57' E 011°44'412.0
2018-Feb-21 02:30N 57°02' E 011°41'611.8
2018-Feb-21 02:00N 57°07' E 011°37'611.7
2018-Feb-21 01:30N 57°13' E 011°34'612.0
2018-Feb-21 01:00N 57°18' E 011°30'612.0
2018-Feb-21 00:30N 57°24' E 011°27'611.4
2018-Feb-21 00:00N 57°29' E 011°21'611.5
2018-Feb-20 23:30N 57°33' E 011°14'611.4
2018-Feb-20 23:00N 57°37' E 011°06'611.8
2018-Feb-20 22:30N 57°41' E 010°58'611.9
2018-Feb-20 22:00N 57°44' E 010°49'5 9.8
2018-Feb-20 21:30N 57°47' E 010°41'611.2
2018-Feb-20 21:00N 57°47' E 010°31'611.3
2018-Feb-20 20:30N 57°47' E 010°20'29711.5
2018-Feb-19 18:37N 54°00' E 004°39'112.4
2018-Feb-19 18:30N 53°59' E 004°38'611.6
2018-Feb-19 17:59N 53°54' E 004°33'611.2
2018-Feb-19 17:29N 53°49' E 004°27'610.8
2018-Feb-19 16:59N 53°46' E 004°20'510.8
2018-Feb-19 16:29N 53°42' E 004°13'95 9.3
2018-Feb-19 06:20N 52°13' E 003°22'411.3
2018-Feb-19 05:57N 52°10' E 003°28'511.0
2018-Feb-19 05:30N 52°08' E 003°35'510.6
2018-Feb-19 05:00N 52°05' E 003°42'510.5
2018-Feb-19 04:30N 52°04' E 003°51'4 8.2
2018-Feb-19 04:00N 52°02' E 003°56'612.7
2018-Feb-19 03:30N 51°59' E 004°05'4 7.8
2018-Feb-19 03:00N 51°57' E 004°10'2 4.1
2018-Feb-19 02:30N 51°55' E 004°12'0 0.0
2018-Feb-19 02:00N 51°55' E 004°12'0 0.0
2018-Feb-19 01:28N 51°55' E 004°12'0 0.0
2018-Feb-19 00:58N 51°55' E 004°12'0 0.0
2018-Feb-19 00:28N 51°55' E 004°12'0 0.0
2018-Feb-18 23:58N 51°55' E 004°12'0 0.0
2018-Feb-18 23:28N 51°55' E 004°12'0 0.0
2018-Feb-18 22:58N 51°55' E 004°12'0 0.0
2018-Feb-18 22:28N 51°55' E 004°12'0 0.0
2018-Feb-18 21:58N 51°55' E 004°12'0 0.0
2018-Feb-18 21:28N 51°55' E 004°12'0 0.0
2018-Feb-18 20:58N 51°55' E 004°12'0 0.0
2018-Feb-18 20:28N 51°55' E 004°12'0 0.0
2018-Feb-18 19:58N 51°55' E 004°12'0 0.0
2018-Feb-18 19:28N 51°55' E 004°12'0 0.0
2018-Feb-18 18:58N 51°55' E 004°12'0 0.0
2018-Feb-18 18:28N 51°55' E 004°12'0 0.0
2018-Feb-18 17:58N 51°55' E 004°12'0 0.0
2018-Feb-18 17:28N 51°55' E 004°12'0 0.0
2018-Feb-18 16:58N 51°55' E 004°12'0 0.0
2018-Feb-18 16:28N 51°55' E 004°12'0 0.0
2018-Feb-18 15:58N 51°55' E 004°12'0 0.0
2018-Feb-18 15:28N 51°55' E 004°12'0 0.0
2018-Feb-18 14:58N 51°55' E 004°12'0 0.0
2018-Feb-18 14:28N 51°55' E 004°12'0 0.0
2018-Feb-18 13:58N 51°55' E 004°12'0 0.0
2018-Feb-18 13:28N 51°55' E 004°12'0 0.0
2018-Feb-18 12:58N 51°55' E 004°12'0 0.0
2018-Feb-18 12:28N 51°55' E 004°12'0 0.0
2018-Feb-18 11:58N 51°55' E 004°12'0 0.0
2018-Feb-18 11:28N 51°55' E 004°12'0 0.0
2018-Feb-18 10:58N 51°55' E 004°12'0 0.0
2018-Feb-18 10:28N 51°55' E 004°12'0 0.0
2018-Feb-18 09:58N 51°55' E 004°12'0 0.0
2018-Feb-18 09:28N 51°55' E 004°12'0 0.0
2018-Feb-18 08:58N 51°55' E 004°12'0 0.0
2018-Feb-18 08:28N 51°55' E 004°12'0 0.0
2018-Feb-18 07:58N 51°55' E 004°12'0 0.0
2018-Feb-18 07:28N 51°55' E 004°12'0 0.0
2018-Feb-18 06:58N 51°55' E 004°12'0 0.0
2018-Feb-18 06:28N 51°55' E 004°12'0 0.0
2018-Feb-18 05:58N 51°55' E 004°12'0 0.0
2018-Feb-18 05:28N 51°55' E 004°12'0 0.0
2018-Feb-18 04:58N 51°55' E 004°12'0 0.0
2018-Feb-18 04:28N 51°55' E 004°12'0 0.0
2018-Feb-18 03:58N 51°55' E 004°12'0 0.0
2018-Feb-18 03:28N 51°55' E 004°12'0 0.0
2018-Feb-18 02:58N 51°55' E 004°12'0 0.0
2018-Feb-18 02:28N 51°55' E 004°12'0 0.0
2018-Feb-18 01:58N 51°55' E 004°12'0 0.0
2018-Feb-18 01:28N 51°55' E 004°12'0 0.0
2018-Feb-18 00:58N 51°55' E 004°12'0 0.0
2018-Feb-18 00:28N 51°55' E 004°12'0 0.0
2018-Feb-17 23:58N 51°55' E 004°12'0 0.0
2018-Feb-17 23:28N 51°55' E 004°12'0 0.0
2018-Feb-17 22:58N 51°55' E 004°12'0 0.0
2018-Feb-17 22:28N 51°55' E 004°12'0 0.0
2018-Feb-17 21:58N 51°55' E 004°12'0 0.0
2018-Feb-17 21:28N 51°55' E 004°12'0 0.0
2018-Feb-17 20:58N 51°55' E 004°12'0 0.0
2018-Feb-17 20:28N 51°55' E 004°12'0 0.0
2018-Feb-17 19:58N 51°55' E 004°12'0 0.0
2018-Feb-17 19:28N 51°55' E 004°12'0 0.0
2018-Feb-17 18:58N 51°55' E 004°12'0 0.0
2018-Feb-17 18:28N 51°55' E 004°12'0 0.0
2018-Feb-17 17:58N 51°55' E 004°12'0 0.0
2018-Feb-17 17:28N 51°55' E 004°12'0 0.0
2018-Feb-17 16:58N 51°55' E 004°12'0 0.0
2018-Feb-17 16:28N 51°55' E 004°12'0 0.0
2018-Feb-17 15:58N 51°55' E 004°12'0 0.0
2018-Feb-17 15:28N 51°55' E 004°12'0 0.0
2018-Feb-17 14:58N 51°55' E 004°12'0 0.0
2018-Feb-17 14:28N 51°55' E 004°12'0 0.0
2018-Feb-17 13:58N 51°55' E 004°12'0 0.0
2018-Feb-17 13:28N 51°55' E 004°12'0 0.0
2018-Feb-17 12:58N 51°55' E 004°12'0 0.0
2018-Feb-17 12:28N 51°55' E 004°12'0 0.0
2018-Feb-17 11:58N 51°55' E 004°12'0 0.0
2018-Feb-17 11:28N 51°55' E 004°12'0 0.0
2018-Feb-17 10:58N 51°55' E 004°12'0 0.0
2018-Feb-17 10:28N 51°55' E 004°12'0 0.0
2018-Feb-17 09:58N 51°55' E 004°12'0 0.0
2018-Feb-17 09:28N 51°55' E 004°12'0 0.0
2018-Feb-17 08:58N 51°55' E 004°12'0 0.0
2018-Feb-17 08:28N 51°55' E 004°12'0 0.0
2018-Feb-17 07:58N 51°55' E 004°12'0 0.0
2018-Feb-17 07:28N 51°55' E 004°12'0 0.0
2018-Feb-17 06:59N 51°55' E 004°12'0 0.0
2018-Feb-17 06:28N 51°55' E 004°12'0 0.0
2018-Feb-17 05:58N 51°55' E 004°12'0 0.0
2018-Feb-17 05:28N 51°55' E 004°12'0 0.0
2018-Feb-17 04:58N 51°55' E 004°12'0 0.0
2018-Feb-17 04:28N 51°55' E 004°12'0 0.0
2018-Feb-17 03:58N 51°55' E 004°12'0 0.0
2018-Feb-17 03:28N 51°55' E 004°12'0 0.0
2018-Feb-17 02:58N 51°55' E 004°12'0 0.0
2018-Feb-17 02:28N 51°55' E 004°12'0 0.0
2018-Feb-17 01:58N 51°55' E 004°12'0 0.0
2018-Feb-17 01:28N 51°55' E 004°12'0 0.0
2018-Feb-17 00:58N 51°55' E 004°12'0 0.0
2018-Feb-17 00:28N 51°55' E 004°12'0 0.0
2018-Feb-16 23:58N 51°55' E 004°12'0 0.0
2018-Feb-16 23:28N 51°55' E 004°12'0 0.0
2018-Feb-16 22:58N 51°55' E 004°12'0 0.0
2018-Feb-16 22:28N 51°55' E 004°12'0 0.0
2018-Feb-16 21:58N 51°55' E 004°12'0 0.0
2018-Feb-16 21:28N 51°55' E 004°12'0 0.0
2018-Feb-16 20:58N 51°55' E 004°12'0 0.0
2018-Feb-16 20:28N 51°55' E 004°12'0 0.0
2018-Feb-16 19:58N 51°55' E 004°12'0 0.0
2018-Feb-16 19:28N 51°55' E 004°12'0 0.0
2018-Feb-16 18:58N 51°55' E 004°12'0 0.0
2018-Feb-16 18:28N 51°55' E 004°12'0 0.0
2018-Feb-16 17:58N 51°55' E 004°12'0 0.0
2018-Feb-16 17:28N 51°55' E 004°12'0 0.0
2018-Feb-16 16:58N 51°55' E 004°12'0 0.0
2018-Feb-16 16:25N 51°55' E 004°12'0 0.0
2018-Feb-16 15:58N 51°55' E 004°12'0 0.0
2018-Feb-16 15:28N 51°55' E 004°12'0 0.0
2018-Feb-16 14:58N 51°55' E 004°12'0 0.0
2018-Feb-16 14:28N 51°55' E 004°12'0 0.0
2018-Feb-16 13:58N 51°55' E 004°12'0 0.0
2018-Feb-16 13:28N 51°55' E 004°12'0 0.0
2018-Feb-16 12:58N 51°55' E 004°12'0 0.0
2018-Feb-16 12:28N 51°55' E 004°12'0 0.0
2018-Feb-16 11:58N 51°55' E 004°12'0 0.0
2018-Feb-16 11:28N 51°55' E 004°12'0 0.0
2018-Feb-16 10:55N 51°55' E 004°12'0 0.0
2018-Feb-16 10:28N 51°55' E 004°12'0 0.0
2018-Feb-16 09:58N 51°55' E 004°12'0 0.0
2018-Feb-16 09:28N 51°55' E 004°12'0 0.0
2018-Feb-16 08:58N 51°55' E 004°12'0 0.0
2018-Feb-16 08:28N 51°55' E 004°12'0 0.0
2018-Feb-16 07:58N 51°55' E 004°12'0 0.0
2018-Feb-16 07:28N 51°55' E 004°12'0 0.0
2018-Feb-16 06:58N 51°55' E 004°12'0 0.0
2018-Feb-16 06:28N 51°55' E 004°12'0 0.0
2018-Feb-16 05:58N 51°55' E 004°12'0 0.0
2018-Feb-16 05:28N 51°55' E 004°12'0 0.1
2018-Feb-16 05:00N 51°55' E 004°12'1 2.4
2018-Feb-16 04:31N 51°56' E 004°11'3 6.3
2018-Feb-16 04:01N 51°58' E 004°07'611.5
2018-Feb-16 03:30N 52°00' E 003°59'5 9.8
2018-Feb-16 03:00N 52°01' E 003°51'510.0
2018-Feb-16 02:31N 52°02' E 003°43'4 8.1
2018-Feb-16 02:00N 52°05' E 003°38'4 8.5
2018-Feb-16 01:30N 52°07' E 003°32'3 6.4
2018-Feb-16 01:00N 52°10' E 003°33'0 0.3
2018-Feb-15 23:56N 52°10' E 003°33'0 0.2
2018-Feb-15 23:30N 52°10' E 003°33'0 0.1
2018-Feb-15 23:00N 52°10' E 003°33'0 0.1
2018-Feb-15 22:30N 52°10' E 003°33'0 0.1
2018-Feb-15 22:00N 52°10' E 003°33'0 0.0
2018-Feb-15 21:30N 52°10' E 003°33'0 0.8
2018-Feb-15 21:00N 52°10' E 003°33'2 4.6
2018-Feb-15 20:30N 52°08' E 003°29'4 7.7
2018-Feb-15 20:00N 52°10' E 003°23'612.4
2018-Feb-15 19:30N 52°14' E 003°15'  

Dump ship's entire track history